map of TSJ home
TSJ - Airport
Location
City:  Tsushima, Tsushima Island, Nagasaki, Japan
Name:Tsushima Airport
ICAO:RJDT
IATA:TSJ

Details
Type:Airport (Aerodrome, Airfield)
Latitude:34°17'06"N (34.284889)
Longitude:129°19'50"E (129.330550)
Datum:WGS 1984
Elevation:213 ft (65 m)
Variation:7.73°W (WMM2015v2 magnetic declination)
-0.08° annual change
Runways:1
Longest:6234 × 150 ft (1900 × 45.5 m), paved

Time
Time Zone:UTC+9
Local Time:

Weather
METAR:RJDT 041100Z 28003KT CAVOK 05/M05 Q1024

Related Locations
Nearby:
Farthest:SJEN: 12286 mi / 19772 km
Santa Vitória do Palmar [Pista Plá e Silva], RS, BR

Find:

   beyond  
but within

Other Information
Maps:
NOTAMs:
Links:
Sources:

  
  • flag of Japan
  • flag of Nagasaki
  

Sectional Chart

Flight Planning
at skyvector.com

Satellite Image

Google Maps Satellite view

 

Copyright © 2004-2019 Karl L. Swartz. All rights reserved.
The Great Circle Mapper name and logo are trademarks of the Great Circle Mapper.
All other trademarks mentioned herein belong to their respective owners.
Please see credits for attibutions and further copyright information.

  Follow gcmap on Facebook Follow gcmap on Twitter GCmap on LinkedIn

hCard Microformat

Geo Microformat